Skagerak — SGCD — position and weather

sailwx.info

Track history (hours):
 
Tides and Currents Weather Stations Pressure Air Temp Water Temp Dewpoint Dewpoint Depression Visibility Wind Speed Wind Dir Waves Ship Positions

Oceanographic research ship Skagerak (Sweden)

Detailed information on ship capabilities available from University of Delaware's Ocean Information Center.

Last reported at 2016-May-24 13:33 UTC. Time now 2016-May-24 13:51 UTC.
Position N 58°15' E 011°27'.

Length 37 m; draft 3.8 m.

Type: Dredging. MMSI: 265280000.

Date/timePositionNaut miles runAvg speedWind from/ knotsBaromVisibWave heightAir tempDewpointWater temp
2016-May-24 13:33N 58°15' E 011°27'5 5.4
2016-May-24 12:33N 58°15' E 011°16'4 4.3
2016-May-24 11:34N 58°19' E 011°12'3 3.3
2016-May-24 10:34N 58°19' E 011°05'3 2.7
2016-May-24 09:34N 58°19' E 011°00'4 3.7
2016-May-24 08:33N 58°19' E 010°53'6 5.9
2016-May-24 07:34N 58°17' E 011°04'1110.5
2016-May-24 06:34N 58°16' E 011°24'2 1.8
2016-May-24 05:34N 58°15' E 011°27'0 0.0
2016-May-24 04:33N 58°15' E 011°27'0 0.0
2016-May-24 03:33N 58°15' E 011°27'0 0.0
2016-May-24 02:33N 58°15' E 011°27'0 0.0
2016-May-24 01:34N 58°15' E 011°27'0 0.0
2016-May-24 00:33N 58°15' E 011°27'0 0.0
2016-May-23 23:34N 58°15' E 011°27'0 0.0
2016-May-23 22:34N 58°15' E 011°27'0 0.0
2016-May-23 21:33N 58°15' E 011°27'0 0.0
2016-May-23 20:34N 58°15' E 011°27'0 0.0
2016-May-23 19:33N 58°15' E 011°27'0 0.0
2016-May-23 18:34N 58°15' E 011°27'0 0.0
2016-May-23 17:34N 58°15' E 011°27'0 0.0
2016-May-23 16:33N 58°15' E 011°27'0 0.0
2016-May-23 15:34N 58°15' E 011°27'0 0.0
2016-May-23 14:34N 58°15' E 011°27'0 0.0
2016-May-23 13:34N 58°15' E 011°27'0 0.0
2016-May-23 12:33N 58°15' E 011°27'0 0.0
2016-May-23 11:33N 58°15' E 011°27'0 0.0
2016-May-23 10:33N 58°15' E 011°27'0 0.0
2016-May-23 09:33N 58°15' E 011°27'0 0.0
2016-May-23 08:34N 58°15' E 011°27'0 0.0
2016-May-23 07:33N 58°15' E 011°27'0 0.0
2016-May-23 06:34N 58°15' E 011°27'0 0.0
2016-May-23 05:33N 58°15' E 011°27'0 0.0
2016-May-23 04:34N 58°15' E 011°27'0 0.0
2016-May-23 03:34N 58°15' E 011°27'0 0.0
2016-May-23 02:33N 58°15' E 011°27'0 0.0
2016-May-23 01:33N 58°15' E 011°27'0 0.0
2016-May-23 00:33N 58°15' E 011°27'0 0.0
2016-May-22 23:34N 58°15' E 011°27'0 0.0
2016-May-22 22:34N 58°15' E 011°27'0 0.0
2016-May-22 21:33N 58°15' E 011°27'0 0.0
2016-May-22 20:33N 58°15' E 011°27'0 0.0
2016-May-22 19:34N 58°15' E 011°27'0 0.0
2016-May-22 18:34N 58°15' E 011°27'0 0.0
2016-May-22 17:34N 58°15' E 011°27'0 0.0
2016-May-22 16:33N 58°15' E 011°27'0 0.0
2016-May-22 15:33N 58°15' E 011°27'0 0.0
2016-May-22 14:34N 58°15' E 011°27'0 0.0
2016-May-22 13:33N 58°15' E 011°27'0 0.0
2016-May-22 12:33N 58°15' E 011°27'0 0.0
2016-May-22 11:33N 58°15' E 011°27'0 0.0
2016-May-22 10:34N 58°15' E 011°27'0 0.0
2016-May-22 09:34N 58°15' E 011°27'0 0.0
2016-May-22 08:33N 58°15' E 011°27'0 0.0
2016-May-22 07:34N 58°15' E 011°27'0 0.0
2016-May-22 06:34N 58°15' E 011°27'0 0.0
2016-May-22 05:34N 58°15' E 011°27'0 0.0
2016-May-22 04:34N 58°15' E 011°27'0 0.0
2016-May-22 03:34N 58°15' E 011°27'0 0.0
2016-May-22 02:33N 58°15' E 011°27'0 0.0
2016-May-22 01:33N 58°15' E 011°27'0 0.0
2016-May-22 00:34N 58°15' E 011°27'0 0.0
2016-May-21 23:33N 58°15' E 011°27'0 0.0
2016-May-21 22:34N 58°15' E 011°27'0 0.0
2016-May-21 21:34N 58°15' E 011°27'0 0.0
2016-May-21 20:33N 58°15' E 011°27'0 0.0
2016-May-21 19:34N 58°15' E 011°27'0 0.0
2016-May-21 18:33N 58°15' E 011°27'0 0.0
2016-May-21 17:33N 58°15' E 011°27'0 0.0
2016-May-21 16:34N 58°15' E 011°27'0 0.0
2016-May-21 15:33N 58°15' E 011°27'0 0.0
2016-May-21 14:34N 58°15' E 011°27'0 0.0
2016-May-21 13:33N 58°15' E 011°27'0 0.0
2016-May-21 12:34N 58°15' E 011°27'0 0.0
2016-May-21 11:34N 58°15' E 011°27'0 0.0
2016-May-21 10:33N 58°15' E 011°27'0 0.0
2016-May-21 09:33N 58°15' E 011°27'0 0.0
2016-May-21 08:33N 58°15' E 011°27'0 0.0
2016-May-21 07:34N 58°15' E 011°27'0 0.0
2016-May-21 06:33N 58°15' E 011°27'0 0.0
2016-May-21 05:34N 58°15' E 011°27'0 0.0
2016-May-21 04:34N 58°15' E 011°27'0 0.0
2016-May-21 03:34N 58°15' E 011°27'0 0.0
2016-May-21 02:33N 58°15' E 011°27'0 0.0
2016-May-21 01:33N 58°15' E 011°27'0 0.0
2016-May-21 00:34N 58°15' E 011°27'0 0.0
2016-May-20 23:34N 58°15' E 011°27'0 0.0
2016-May-20 22:34N 58°15' E 011°27'0 0.0
2016-May-20 21:34N 58°15' E 011°27'0 0.0
2016-May-20 20:34N 58°15' E 011°27'0 0.0
2016-May-20 19:34N 58°15' E 011°27'0 0.0
2016-May-20 18:33N 58°15' E 011°27'0 0.0
2016-May-20 17:33N 58°15' E 011°27'0 0.0
2016-May-20 16:34N 58°15' E 011°27'0 0.0
2016-May-20 15:33N 58°15' E 011°27'0 0.0
2016-May-20 14:34N 58°15' E 011°27'0 0.0
2016-May-20 13:34N 58°15' E 011°27'0 0.0
2016-May-20 12:34N 58°15' E 011°27'0 0.0
2016-May-20 11:33N 58°15' E 011°27'0 0.0
2016-May-20 10:33N 58°15' E 011°27'2 1.7
2016-May-20 09:33N 58°16' E 011°25'4 3.5
2016-May-20 08:33N 58°19' E 011°22'3 3.0
2016-May-20 07:33N 58°17' E 011°25'2 1.7
2016-May-20 06:33N 58°16' E 011°23'2 2.2
2016-May-20 05:34N 58°15' E 011°27'0 0.0
2016-May-20 04:34N 58°15' E 011°27'0 0.0
2016-May-20 03:34N 58°15' E 011°27'0 0.0
2016-May-20 02:33N 58°15' E 011°27'0 0.0
2016-May-20 01:34N 58°15' E 011°27'0 0.0
2016-May-20 00:33N 58°15' E 011°27'0 0.0
2016-May-19 23:34N 58°15' E 011°27'0 0.0
2016-May-19 22:34N 58°15' E 011°27'0 0.0
2016-May-19 21:34N 58°15' E 011°27'0 0.0
2016-May-19 20:33N 58°15' E 011°27'0 0.0
2016-May-19 19:34N 58°15' E 011°27'0 0.0
2016-May-19 18:34N 58°15' E 011°27'8 7.7
2016-May-19 17:34N 58°15' E 011°12'8 8.4
2016-May-19 16:34N 58°14' E 010°57'8 8.4
2016-May-19 15:34N 58°13' E 010°41'6 5.8
2016-May-19 14:33N 58°18' E 010°45'7 7.2
2016-May-19 13:33N 58°25' E 010°52'9 9.3
2016-May-19 12:33N 58°29' E 010°36'7 6.7
2016-May-19 11:33N 58°33' E 010°48'9 9.0
2016-May-19 10:33N 58°41' E 010°42'8 7.9
2016-May-19 09:34N 58°49' E 010°44'5 5.1
2016-May-19 08:34N 58°50' E 010°54'6 5.9
2016-May-19 07:34N 58°49' E 011°05'4 4.5
2016-May-19 06:34N 58°45' E 011°08'5 5.3
2016-May-19 05:34N 58°41' E 011°13'1 1.1
2016-May-19 04:34N 58°41' E 011°15'0 0.0
2016-May-19 03:33N 58°41' E 011°15'0 0.0
2016-May-19 02:34N 58°41' E 011°15'0 0.0
2016-May-19 01:33N 58°41' E 011°15'0 0.0
2016-May-19 00:33N 58°41' E 011°15'0 0.0
2016-May-18 23:33N 58°41' E 011°15'0 0.0
2016-May-18 22:33N 58°41' E 011°15'0 0.0
2016-May-18 21:33N 58°41' E 011°15'0 0.0
2016-May-18 20:33N 58°41' E 011°15'0 0.0
2016-May-18 19:34N 58°41' E 011°15'0 0.0
2016-May-18 18:33N 58°41' E 011°15'2 1.9
2016-May-18 17:34N 58°42' E 011°13'5 5.1
2016-May-18 16:34N 58°37' E 011°14'3 3.1
2016-May-18 15:33N 58°37' E 011°09'4 4.2
2016-May-18 14:34N 58°34' E 011°14'4 4.4
2016-May-18 13:34N 58°29' E 011°14'2 2.0
2016-May-18 12:33N 58°28' E 011°17'2 2.0
2016-May-18 11:34N 58°27' E 011°14'7 6.6
2016-May-18 10:34N 58°21' E 011°10'5 5.3
2016-May-18 09:33N 58°18' E 011°19'2 2.4
2016-May-18 08:34N 58°16' E 011°19'7 7.2
2016-May-18 07:34N 58°09' E 011°17'7 7.5
2016-May-18 06:34N 58°02' E 011°22'4 4.0
2016-May-18 05:34N 58°04' E 011°28'0 0.0
2016-May-18 04:34N 58°04' E 011°28'0 0.0
2016-May-18 03:33N 58°04' E 011°28'0 0.0
2016-May-18 02:33N 58°04' E 011°28'0 0.0
2016-May-18 01:33N 58°04' E 011°28'0 0.0
2016-May-18 00:34N 58°04' E 011°28'0 0.0
2016-May-17 23:34N 58°04' E 011°28'0 0.0
2016-May-17 22:33N 58°04' E 011°28'0 0.0
2016-May-17 21:34N 58°04' E 011°28'0 0.0
2016-May-17 20:33N 58°04' E 011°28'0 0.0
2016-May-17 19:33N 58°04' E 011°28'0 0.0
2016-May-17 18:34N 58°04' E 011°28'2 1.7
2016-May-17 17:31N 58°04' E 011°31'1 1.1
2016-May-17 16:33N 58°04' E 011°29'2 1.6
2016-May-17 15:33N 58°05' E 011°28'1 1.3
2016-May-17 14:33N 58°07' E 011°26'5 5.0
2016-May-17 13:34N 58°11' E 011°29'6 6.3
2016-May-17 12:34N 58°15' E 011°38'8 8.2
2016-May-17 11:33N 58°20' E 011°51'3 3.4
2016-May-17 10:33N 58°19' E 011°45'2 2.2
2016-May-17 09:33N 58°17' E 011°48'5 4.9
2016-May-17 08:33N 58°12' E 011°51'6 5.7
2016-May-17 07:34N 58°07' E 011°48'3 3.2
2016-May-17 06:33N 58°04' E 011°47'1 1.2
2016-May-17 05:33N 58°05' E 011°49'0 0.0
2016-May-17 04:33N 58°05' E 011°49'0 0.0
2016-May-17 03:33N 58°05' E 011°49'0 0.0
2016-May-17 02:34N 58°05' E 011°49'0 0.0
2016-May-17 01:33N 58°05' E 011°49'0 0.0
2016-May-17 00:34N 58°05' E 011°49'0 0.0
2016-May-16 23:33N 58°05' E 011°49'0 0.0
2016-May-16 22:34N 58°05' E 011°49'0 0.0
2016-May-16 21:33N 58°05' E 011°49'0 0.0
2016-May-16 20:34N 58°05' E 011°49'0 0.0
2016-May-16 19:33N 58°05' E 011°49'7 6.6
2016-May-16 18:34N 57°58' E 011°44'2 2.3
2016-May-16 17:34N 57°56' E 011°43'6 5.6
2016-May-16 16:34N 57°55' E 011°32'2 1.9
2016-May-16 15:34N 57°54' E 011°30'5 4.7
2016-May-16 14:33N 57°49' E 011°30'3 2.7
2016-May-16 13:33N 57°49' E 011°35'1 1.4
2016-May-16 12:33N 57°49' E 011°38'4 3.9
2016-May-16 11:34N 57°46' E 011°43'3 2.6
2016-May-16 10:34N 57°44' E 011°40'5 5.3
2016-May-16 09:33N 57°39' E 011°42'5 5.5
2016-May-16 08:34N 57°34' E 011°40'3 3.4
2016-May-16 07:34N 57°36' E 011°37'7 6.8
2016-May-16 06:34N 57°38' E 011°49'1 1.4
2016-May-16 05:33N 57°39' E 011°51'0 0.0
2016-May-16 04:33N 57°39' E 011°51'0 0.0
2016-May-16 03:34N 57°39' E 011°51'0 0.0
2016-May-16 02:34N 57°39' E 011°51'0 0.0
2016-May-16 01:33N 57°39' E 011°51'0 0.0
2016-May-16 00:33N 57°39' E 011°51'0 0.0
2016-May-15 23:33N 57°39' E 011°51'0 0.0
2016-May-15 22:33N 57°39' E 011°51'0 0.0
2016-May-15 21:33N 57°39' E 011°51'0 0.0
2016-May-15 20:34N 57°39' E 011°51'0 0.0
2016-May-15 19:34N 57°39' E 011°51'0 0.0
2016-May-15 18:34N 57°39' E 011°51'0 0.0
2016-May-15 17:34N 57°39' E 011°51'0 0.0
2016-May-15 16:34N 57°39' E 011°51'0 0.0
2016-May-15 15:33N 57°39' E 011°51'0 0.0
2016-May-15 14:34N 57°39' E 011°51'0 0.0
2016-May-15 13:33N 57°39' E 011°51'0 0.0
2016-May-15 12:33N 57°39' E 011°51'0 0.0
2016-May-15 11:34N 57°39' E 011°51'0 0.0
2016-May-15 10:34N 57°39' E 011°51'0 0.0
2016-May-15 09:34N 57°39' E 011°51'0 0.0
2016-May-15 08:33N 57°39' E 011°51'0 0.0
2016-May-15 07:34N 57°39' E 011°51'0 0.0
2016-May-15 06:33N 57°39' E 011°51'0 0.0
2016-May-15 05:34N 57°39' E 011°51'0 0.0
2016-May-15 04:34N 57°39' E 011°51'0 0.0
2016-May-15 03:34N 57°39' E 011°51'0 0.0
2016-May-15 02:34N 57°39' E 011°51'0 0.0
2016-May-15 01:33N 57°39' E 011°51'0 0.0
2016-May-15 00:34N 57°39' E 011°51'0 0.0
2016-May-14 23:33N 57°39' E 011°51'0 0.0
2016-May-14 22:33N 57°39' E 011°51'0 0.0
2016-May-14 21:33N 57°39' E 011°51'0 0.0
2016-May-14 20:33N 57°39' E 011°51'0 0.0
2016-May-14 19:34N 57°39' E 011°51'0 0.0
2016-May-14 18:34N 57°39' E 011°51'0 0.0
2016-May-14 17:34N 57°39' E 011°51'0 0.0
2016-May-14 16:34N 57°39' E 011°51'0 0.0
2016-May-14 15:33N 57°39' E 011°51'0 0.0
2016-May-14 14:34N 57°39' E 011°51'0 0.0
2016-May-14 13:34N 57°39' E 011°51'  
Track history (hours):
 
Tides and Currents Weather Stations Pressure Air Temp Water Temp Dewpoint Dewpoint Depression Visibility Wind Speed Wind Dir Waves Ship Positions

Oceanographic research ship Skagerak (Sweden)

Detailed information on ship capabilities available from University of Delaware's Ocean Information Center.

Last reported at 2016-May-24 13:33 UTC. Time now 2016-May-24 13:51 UTC.
Position N 58°15' E 011°27'.

Length 37 m; draft 3.8 m.

Type: Dredging. MMSI: 265280000.

Date/timePositionNaut miles runAvg speedWind from/ knotsBaromVisibWave heightAir tempDewpointWater temp
2016-May-24 13:33N 58°15' E 011°27'5 5.4
2016-May-24 12:33N 58°15' E 011°16'4 4.3
2016-May-24 11:34N 58°19' E 011°12'3 3.3
2016-May-24 10:34N 58°19' E 011°05'3 2.7
2016-May-24 09:34N 58°19' E 011°00'4 3.7
2016-May-24 08:33N 58°19' E 010°53'6 5.9
2016-May-24 07:34N 58°17' E 011°04'1110.5
2016-May-24 06:34N 58°16' E 011°24'2 1.8
2016-May-24 05:34N 58°15' E 011°27'0 0.0
2016-May-24 04:33N 58°15' E 011°27'0 0.0
2016-May-24 03:33N 58°15' E 011°27'0 0.0
2016-May-24 02:33N 58°15' E 011°27'0 0.0
2016-May-24 01:34N 58°15' E 011°27'0 0.0
2016-May-24 00:33N 58°15' E 011°27'0 0.0
2016-May-23 23:34N 58°15' E 011°27'0 0.0
2016-May-23 22:34N 58°15' E 011°27'0 0.0
2016-May-23 21:33N 58°15' E 011°27'0 0.0
2016-May-23 20:34N 58°15' E 011°27'0 0.0
2016-May-23 19:33N 58°15' E 011°27'0 0.0
2016-May-23 18:34N 58°15' E 011°27'0 0.0
2016-May-23 17:34N 58°15' E 011°27'0 0.0
2016-May-23 16:33N 58°15' E 011°27'0 0.0
2016-May-23 15:34N 58°15' E 011°27'0 0.0
2016-May-23 14:34N 58°15' E 011°27'0 0.0
2016-May-23 13:34N 58°15' E 011°27'0 0.0
2016-May-23 12:33N 58°15' E 011°27'0 0.0
2016-May-23 11:33N 58°15' E 011°27'0 0.0
2016-May-23 10:33N 58°15' E 011°27'0 0.0
2016-May-23 09:33N 58°15' E 011°27'0 0.0
2016-May-23 08:34N 58°15' E 011°27'0 0.0
2016-May-23 07:33N 58°15' E 011°27'0 0.0
2016-May-23 06:34N 58°15' E 011°27'0 0.0
2016-May-23 05:33N 58°15' E 011°27'0 0.0
2016-May-23 04:34N 58°15' E 011°27'0 0.0
2016-May-23 03:34N 58°15' E 011°27'0 0.0
2016-May-23 02:33N 58°15' E 011°27'0 0.0
2016-May-23 01:33N 58°15' E 011°27'0 0.0
2016-May-23 00:33N 58°15' E 011°27'0 0.0
2016-May-22 23:34N 58°15' E 011°27'0 0.0
2016-May-22 22:34N 58°15' E 011°27'0 0.0
2016-May-22 21:33N 58°15' E 011°27'0 0.0
2016-May-22 20:33N 58°15' E 011°27'0 0.0
2016-May-22 19:34N 58°15' E 011°27'0 0.0
2016-May-22 18:34N 58°15' E 011°27'0 0.0
2016-May-22 17:34N 58°15' E 011°27'0 0.0
2016-May-22 16:33N 58°15' E 011°27'0 0.0
2016-May-22 15:33N 58°15' E 011°27'0 0.0
2016-May-22 14:34N 58°15' E 011°27'0 0.0
2016-May-22 13:33N 58°15' E 011°27'0 0.0
2016-May-22 12:33N 58°15' E 011°27'0 0.0
2016-May-22 11:33N 58°15' E 011°27'0 0.0
2016-May-22 10:34N 58°15' E 011°27'0 0.0
2016-May-22 09:34N 58°15' E 011°27'0 0.0
2016-May-22 08:33N 58°15' E 011°27'0 0.0
2016-May-22 07:34N 58°15' E 011°27'0 0.0
2016-May-22 06:34N 58°15' E 011°27'0 0.0
2016-May-22 05:34N 58°15' E 011°27'0 0.0
2016-May-22 04:34N 58°15' E 011°27'0 0.0
2016-May-22 03:34N 58°15' E 011°27'0 0.0
2016-May-22 02:33N 58°15' E 011°27'0 0.0
2016-May-22 01:33N 58°15' E 011°27'0 0.0
2016-May-22 00:34N 58°15' E 011°27'0 0.0
2016-May-21 23:33N 58°15' E 011°27'0 0.0
2016-May-21 22:34N 58°15' E 011°27'0 0.0
2016-May-21 21:34N 58°15' E 011°27'0 0.0
2016-May-21 20:33N 58°15' E 011°27'0 0.0
2016-May-21 19:34N 58°15' E 011°27'0 0.0
2016-May-21 18:33N 58°15' E 011°27'0 0.0
2016-May-21 17:33N 58°15' E 011°27'0 0.0
2016-May-21 16:34N 58°15' E 011°27'0 0.0
2016-May-21 15:33N 58°15' E 011°27'0 0.0
2016-May-21 14:34N 58°15' E 011°27'0 0.0
2016-May-21 13:33N 58°15' E 011°27'0 0.0
2016-May-21 12:34N 58°15' E 011°27'0 0.0
2016-May-21 11:34N 58°15' E 011°27'0 0.0
2016-May-21 10:33N 58°15' E 011°27'0 0.0
2016-May-21 09:33N 58°15' E 011°27'0 0.0
2016-May-21 08:33N 58°15' E 011°27'0 0.0
2016-May-21 07:34N 58°15' E 011°27'0 0.0
2016-May-21 06:33N 58°15' E 011°27'0 0.0
2016-May-21 05:34N 58°15' E 011°27'0 0.0
2016-May-21 04:34N 58°15' E 011°27'0 0.0
2016-May-21 03:34N 58°15' E 011°27'0 0.0
2016-May-21 02:33N 58°15' E 011°27'0 0.0
2016-May-21 01:33N 58°15' E 011°27'0 0.0
2016-May-21 00:34N 58°15' E 011°27'0 0.0
2016-May-20 23:34N 58°15' E 011°27'0 0.0
2016-May-20 22:34N 58°15' E 011°27'0 0.0
2016-May-20 21:34N 58°15' E 011°27'0 0.0
2016-May-20 20:34N 58°15' E 011°27'0 0.0
2016-May-20 19:34N 58°15' E 011°27'0 0.0
2016-May-20 18:33N 58°15' E 011°27'0 0.0
2016-May-20 17:33N 58°15' E 011°27'0 0.0
2016-May-20 16:34N 58°15' E 011°27'0 0.0
2016-May-20 15:33N 58°15' E 011°27'0 0.0
2016-May-20 14:34N 58°15' E 011°27'0 0.0
2016-May-20 13:34N 58°15' E 011°27'0 0.0
2016-May-20 12:34N 58°15' E 011°27'0 0.0
2016-May-20 11:33N 58°15' E 011°27'0 0.0
2016-May-20 10:33N 58°15' E 011°27'2 1.7
2016-May-20 09:33N 58°16' E 011°25'4 3.5
2016-May-20 08:33N 58°19' E 011°22'3 3.0
2016-May-20 07:33N 58°17' E 011°25'2 1.7
2016-May-20 06:33N 58°16' E 011°23'2 2.2
2016-May-20 05:34N 58°15' E 011°27'0 0.0
2016-May-20 04:34N 58°15' E 011°27'0 0.0
2016-May-20 03:34N 58°15' E 011°27'0 0.0
2016-May-20 02:33N 58°15' E 011°27'0 0.0
2016-May-20 01:34N 58°15' E 011°27'0 0.0
2016-May-20 00:33N 58°15' E 011°27'0 0.0
2016-May-19 23:34N 58°15' E 011°27'0 0.0
2016-May-19 22:34N 58°15' E 011°27'0 0.0
2016-May-19 21:34N 58°15' E 011°27'0 0.0
2016-May-19 20:33N 58°15' E 011°27'0 0.0
2016-May-19 19:34N 58°15' E 011°27'0 0.0
2016-May-19 18:34N 58°15' E 011°27'8 7.7
2016-May-19 17:34N 58°15' E 011°12'8 8.4
2016-May-19 16:34N 58°14' E 010°57'8 8.4
2016-May-19 15:34N 58°13' E 010°41'6 5.8
2016-May-19 14:33N 58°18' E 010°45'7 7.2
2016-May-19 13:33N 58°25' E 010°52'9 9.3
2016-May-19 12:33N 58°29' E 010°36'7 6.7
2016-May-19 11:33N 58°33' E 010°48'9 9.0
2016-May-19 10:33N 58°41' E 010°42'8 7.9
2016-May-19 09:34N 58°49' E 010°44'5 5.1
2016-May-19 08:34N 58°50' E 010°54'6 5.9
2016-May-19 07:34N 58°49' E 011°05'4 4.5
2016-May-19 06:34N 58°45' E 011°08'5 5.3
2016-May-19 05:34N 58°41' E 011°13'1 1.1
2016-May-19 04:34N 58°41' E 011°15'0 0.0
2016-May-19 03:33N 58°41' E 011°15'0 0.0
2016-May-19 02:34N 58°41' E 011°15'0 0.0
2016-May-19 01:33N 58°41' E 011°15'0 0.0
2016-May-19 00:33N 58°41' E 011°15'0 0.0
2016-May-18 23:33N 58°41' E 011°15'0 0.0
2016-May-18 22:33N 58°41' E 011°15'0 0.0
2016-May-18 21:33N 58°41' E 011°15'0 0.0
2016-May-18 20:33N 58°41' E 011°15'0 0.0
2016-May-18 19:34N 58°41' E 011°15'0 0.0
2016-May-18 18:33N 58°41' E 011°15'2 1.9
2016-May-18 17:34N 58°42' E 011°13'5 5.1
2016-May-18 16:34N 58°37' E 011°14'3 3.1
2016-May-18 15:33N 58°37' E 011°09'4 4.2
2016-May-18 14:34N 58°34' E 011°14'4 4.4
2016-May-18 13:34N 58°29' E 011°14'2 2.0
2016-May-18 12:33N 58°28' E 011°17'2 2.0
2016-May-18 11:34N 58°27' E 011°14'7 6.6
2016-May-18 10:34N 58°21' E 011°10'5 5.3
2016-May-18 09:33N 58°18' E 011°19'2 2.4
2016-May-18 08:34N 58°16' E 011°19'7 7.2
2016-May-18 07:34N 58°09' E 011°17'7 7.5
2016-May-18 06:34N 58°02' E 011°22'4 4.0
2016-May-18 05:34N 58°04' E 011°28'0 0.0
2016-May-18 04:34N 58°04' E 011°28'0 0.0
2016-May-18 03:33N 58°04' E 011°28'0 0.0
2016-May-18 02:33N 58°04' E 011°28'0 0.0
2016-May-18 01:33N 58°04' E 011°28'0 0.0
2016-May-18 00:34N 58°04' E 011°28'0 0.0
2016-May-17 23:34N 58°04' E 011°28'0 0.0
2016-May-17 22:33N 58°04' E 011°28'0 0.0
2016-May-17 21:34N 58°04' E 011°28'0 0.0
2016-May-17 20:33N 58°04' E 011°28'0 0.0
2016-May-17 19:33N 58°04' E 011°28'0 0.0
2016-May-17 18:34N 58°04' E 011°28'2 1.7
2016-May-17 17:31N 58°04' E 011°31'1 1.1
2016-May-17 16:33N 58°04' E 011°29'2 1.6
2016-May-17 15:33N 58°05' E 011°28'1 1.3
2016-May-17 14:33N 58°07' E 011°26'5 5.0
2016-May-17 13:34N 58°11' E 011°29'6 6.3
2016-May-17 12:34N 58°15' E 011°38'8 8.2
2016-May-17 11:33N 58°20' E 011°51'3 3.4
2016-May-17 10:33N 58°19' E 011°45'2 2.2
2016-May-17 09:33N 58°17' E 011°48'5 4.9
2016-May-17 08:33N 58°12' E 011°51'6 5.7
2016-May-17 07:34N 58°07' E 011°48'3 3.2
2016-May-17 06:33N 58°04' E 011°47'1 1.2
2016-May-17 05:33N 58°05' E 011°49'0 0.0
2016-May-17 04:33N 58°05' E 011°49'0 0.0
2016-May-17 03:33N 58°05' E 011°49'0 0.0
2016-May-17 02:34N 58°05' E 011°49'0 0.0
2016-May-17 01:33N 58°05' E 011°49'0 0.0
2016-May-17 00:34N 58°05' E 011°49'0 0.0
2016-May-16 23:33N 58°05' E 011°49'0 0.0
2016-May-16 22:34N 58°05' E 011°49'0 0.0
2016-May-16 21:33N 58°05' E 011°49'0 0.0
2016-May-16 20:34N 58°05' E 011°49'0 0.0
2016-May-16 19:33N 58°05' E 011°49'7 6.6
2016-May-16 18:34N 57°58' E 011°44'2 2.3
2016-May-16 17:34N 57°56' E 011°43'6 5.6
2016-May-16 16:34N 57°55' E 011°32'2 1.9
2016-May-16 15:34N 57°54' E 011°30'5 4.7
2016-May-16 14:33N 57°49' E 011°30'3 2.7
2016-May-16 13:33N 57°49' E 011°35'1 1.4
2016-May-16 12:33N 57°49' E 011°38'4 3.9
2016-May-16 11:34N 57°46' E 011°43'3 2.6
2016-May-16 10:34N 57°44' E 011°40'5 5.3
2016-May-16 09:33N 57°39' E 011°42'5 5.5
2016-May-16 08:34N 57°34' E 011°40'3 3.4
2016-May-16 07:34N 57°36' E 011°37'7 6.8
2016-May-16 06:34N 57°38' E 011°49'1 1.4
2016-May-16 05:33N 57°39' E 011°51'0 0.0
2016-May-16 04:33N 57°39' E 011°51'0 0.0
2016-May-16 03:34N 57°39' E 011°51'0 0.0
2016-May-16 02:34N 57°39' E 011°51'0 0.0
2016-May-16 01:33N 57°39' E 011°51'0 0.0
2016-May-16 00:33N 57°39' E 011°51'0 0.0
2016-May-15 23:33N 57°39' E 011°51'0 0.0
2016-May-15 22:33N 57°39' E 011°51'0 0.0
2016-May-15 21:33N 57°39' E 011°51'0 0.0
2016-May-15 20:34N 57°39' E 011°51'0 0.0
2016-May-15 19:34N 57°39' E 011°51'0 0.0
2016-May-15 18:34N 57°39' E 011°51'0 0.0
2016-May-15 17:34N 57°39' E 011°51'0 0.0
2016-May-15 16:34N 57°39' E 011°51'0 0.0
2016-May-15 15:33N 57°39' E 011°51'0 0.0
2016-May-15 14:34N 57°39' E 011°51'0 0.0
2016-May-15 13:33N 57°39' E 011°51'0 0.0
2016-May-15 12:33N 57°39' E 011°51'0 0.0
2016-May-15 11:34N 57°39' E 011°51'0 0.0
2016-May-15 10:34N 57°39' E 011°51'0 0.0
2016-May-15 09:34N 57°39' E 011°51'0 0.0
2016-May-15 08:33N 57°39' E 011°51'0 0.0
2016-May-15 07:34N 57°39' E 011°51'0 0.0
2016-May-15 06:33N 57°39' E 011°51'0 0.0
2016-May-15 05:34N 57°39' E 011°51'0 0.0
2016-May-15 04:34N 57°39' E 011°51'0 0.0
2016-May-15 03:34N 57°39' E 011°51'0 0.0
2016-May-15 02:34N 57°39' E 011°51'0 0.0
2016-May-15 01:33N 57°39' E 011°51'0 0.0
2016-May-15 00:34N 57°39' E 011°51'0 0.0
2016-May-14 23:33N 57°39' E 011°51'0 0.0
2016-May-14 22:33N 57°39' E 011°51'0 0.0
2016-May-14 21:33N 57°39' E 011°51'0 0.0
2016-May-14 20:33N 57°39' E 011°51'0 0.0
2016-May-14 19:34N 57°39' E 011°51'0 0.0
2016-May-14 18:34N 57°39' E 011°51'0 0.0
2016-May-14 17:34N 57°39' E 011°51'0 0.0
2016-May-14 16:34N 57°39' E 011°51'0 0.0
2016-May-14 15:33N 57°39' E 011°51'0 0.0
2016-May-14 14:34N 57°39' E 011°51'0 0.0
2016-May-14 13:34N 57°39' E 011°51'  

Dump ship's entire track history